Time;durP1;ratioP1;P1;durP2;ratioP2;P2;SDS_P1;SDS_P2;PMS_P1;PMS_P2;Temp;Humidity;BMP_temperature;BMP_pressure;BME280_temperature;BME280_humidity;BME280_pressure;Samples;Min_cycle;Max_cycle;Signal;HPM_P1;HPM_P2
2021/01/19 00:02:07;;;;;;;3.85;1.58;;;3.70;85.40;;;;;;4965969;28;20062;-82
2021/01/19 00:04:34;;;;;;;5.43;1.83;;;3.70;85.30;;;;;;4949293;28;21138;-84
2021/01/19 00:07:04;;;;;;;3.45;1.67;;;3.70;85.60;;;;;;4969703;28;20067;-83
2021/01/19 00:09:31;;;;;;;3.47;1.67;;;3.70;85.70;;;;;;4967323;28;21052;-83
2021/01/19 00:11:58;;;;;;;2.92;1.70;;;3.70;85.90;;;;;;4968630;28;20409;-82
2021/01/19 00:14:25;;;;;;;3.05;1.33;;;3.70;86.10;;;;;;4960266;28;20055;-81
2021/01/19 00:16:53;;;;;;;4.68;2.00;;;3.60;86.60;;;;;;4974228;28;20091;-83
2021/01/19 00:19:19;;;;;;;8.07;1.90;;;3.60;86.40;;;;;;4951712;28;20409;-83
2021/01/19 00:21:47;;;;;;;4.45;1.83;;;3.60;86.10;;;;;;4958172;28;20457;-83
2021/01/19 00:24:14;;;;;;;8.45;2.08;;;3.60;86.10;;;;;;4971144;28;20055;-81
2021/01/19 00:26:42;;;;;;;2.67;1.60;;;3.70;86.10;;;;;;4973451;28;20256;-82
2021/01/19 00:29:09;;;;;;;4.53;1.98;;;3.60;86.20;;;;;;4972677;28;20070;-81
2021/01/19 00:31:36;;;;;;;6.80;1.42;;;3.60;86.20;;;;;;4976783;28;20061;-83
2021/01/19 00:34:04;;;;;;;1.70;0.70;;;3.70;85.90;;;;;;4945402;28;20440;-82
2021/01/19 00:36:30;;;;;;;4.35;1.88;;;3.60;86.00;;;;;;4972550;28;25213;-84
2021/01/19 00:38:57;;;;;;;4.80;1.48;;;3.70;85.80;;;;;;4976529;28;20046;-87
2021/01/19 00:41:25;;;;;;;4.18;2.20;;;3.60;86.00;;;;;;4955731;28;20246;-86
2021/01/19 00:43:52;;;;;;;5.95;1.90;;;3.70;85.80;;;;;;4975806;28;20059;-83
2021/01/19 00:46:19;;;;;;;3.38;1.80;;;3.70;85.50;;;;;;4974516;28;20074;-82
2021/01/19 00:48:46;;;;;;;3.80;1.60;;;3.60;85.70;;;;;;4953709;28;20064;-83
2021/01/19 00:51:15;;;;;;;2.80;1.40;;;3.70;85.50;;;;;;4958258;28;20058;-82
2021/01/19 00:53:41;;;;;;;3.35;1.35;;;3.70;85.50;;;;;;4939864;28;20065;-84
2021/01/19 00:56:09;;;;;;;3.78;1.55;;;3.70;85.40;;;;;;4941916;28;20122;-82
2021/01/19 00:58:37;;;;;;;7.90;1.98;;;3.70;85.50;;;;;;4961302;28;20286;-82
2021/01/19 01:01:08;;;;;;;9.35;2.80;;;3.60;85.50;;;;;;4947409;28;20058;-84
2021/01/19 01:03:41;;;;;;;6.78;2.35;;;3.70;85.30;;;;;;4978819;28;20685;-85
2021/01/19 01:06:17;;;;;;;6.68;1.60;;;3.60;85.30;;;;;;4978241;28;20050;-82
2021/01/19 01:08:45;;;;;;;5.97;1.42;;;3.70;85.00;;;;;;4963429;28;20365;-86
2021/01/19 01:11:12;;;;;;;7.90;1.75;;;3.70;84.80;;;;;;4962785;28;20239;-82
2021/01/19 01:13:40;;;;;;;5.22;1.73;;;3.70;85.20;;;;;;4942178;28;20043;-83
2021/01/19 01:16:08;;;;;;;8.00;1.77;;;3.70;85.20;;;;;;4975705;28;20173;-83
2021/01/19 01:18:35;;;;;;;6.28;1.70;;;3.70;85.10;;;;;;4958625;28;20057;-82
2021/01/19 01:21:04;;;;;;;10.60;3.03;;;3.70;84.90;;;;;;4971098;28;20054;-83
2021/01/19 01:23:32;;;;;;;7.43;1.95;;;3.70;85.00;;;;;;4959129;28;20081;-80
2021/01/19 01:25:59;;;;;;;6.25;1.63;;;3.70;84.80;;;;;;4975794;28;20069;-86
2021/01/19 01:28:27;;;;;;;5.00;1.98;;;3.70;84.70;;;;;;4973061;28;20058;-85
2021/01/19 01:30:54;;;;;;;4.43;1.73;;;3.70;84.60;;;;;;4980627;28;20054;-82
2021/01/19 01:33:24;;;;;;;5.75;1.70;;;3.70;84.60;;;;;;4960098;28;20054;-84
2021/01/19 01:35:52;;;;;;;4.63;1.92;;;3.70;84.20;;;;;;4977407;28;20047;-83
2021/01/19 01:38:20;;;;;;;3.78;1.60;;;3.70;84.40;;;;;;4980147;28;20047;-83
2021/01/19 01:40:48;;;;;;;8.93;2.55;;;3.70;84.50;;;;;;4979586;28;20066;-83
2021/01/19 01:43:16;;;;;;;5.97;1.63;;;3.70;84.10;;;;;;4964527;28;20173;-84
2021/01/19 01:45:43;;;;;;;5.90;1.83;;;3.60;84.40;;;;;;4970574;28;20073;-84
2021/01/19 01:48:11;;;;;;;4.50;1.67;;;3.70;84.40;;;;;;4974684;28;20106;-83
2021/01/19 01:50:39;;;;;;;5.05;1.70;;;3.60;84.40;;;;;;4972960;28;20051;-81
2021/01/19 01:53:07;;;;;;;4.38;1.38;;;3.70;84.10;;;;;;4974414;28;20250;-85
2021/01/19 01:55:37;;;;;;;3.72;1.33;;;3.70;83.60;;;;;;4958530;28;20122;-83
2021/01/19 01:58:06;;;;;;;2.38;1.23;;;3.70;83.70;;;;;;4942773;28;20337;-82
2021/01/19 02:00:33;;;;;;;3.92;1.50;;;3.70;84.10;;;;;;4957083;28;20367;-81
2021/01/19 02:03:04;;;;;;;2.95;1.33;;;3.60;83.80;;;;;;4957822;28;20118;-82
2021/01/19 02:05:31;;;;;;;4.43;2.17;;;3.60;83.60;;;;;;4963521;28;20062;-82
2021/01/19 02:08:19;;;;;;;5.50;1.42;;;3.50;83.70;;;;;;4980795;28;20062;-83
2021/01/19 02:10:58;;;;;;;6.38;1.75;;;3.50;83.60;;;;;;4963777;28;20054;-83
2021/01/19 02:13:36;;;;;;;2.33;1.45;;;3.40;83.60;;;;;;4982627;28;20050;-84
2021/01/19 02:16:21;;;;;;;4.03;1.75;;;3.40;83.70;;;;;;4979110;28;20407;-83
2021/01/19 02:19:03;;;;;;;4.88;1.33;;;3.40;84.00;;;;;;4954106;28;20054;-81
2021/01/19 02:21:51;;;;;;;2.35;1.35;;;3.30;84.20;;;;;;4954033;28;20051;-82
2021/01/19 02:24:32;;;;;;;3.72;1.20;;;3.20;84.20;;;;;;4969994;28;21546;-82
2021/01/19 02:27:39;;;;;;;4.03;1.65;;;3.20;84.30;;;;;;4941391;28;20117;-81
2021/01/19 02:30:23;;;;;;;5.00;3.10;;;3.20;84.00;;;;;;4948454;28;20066;-81
2021/01/19 02:33:08;;;;;;;2.55;1.05;;;3.10;84.20;;;;;;4974107;28;20043;-81
2021/01/19 02:35:47;;;;;;;6.15;1.45;;;3.10;84.20;;;;;;4955676;28;20038;-86
2021/01/19 02:38:25;;;;;;;1.88;1.08;;;3.10;84.10;;;;;;4947067;28;20050;-83
2021/01/19 02:40:55;;;;;;;4.13;1.52;;;3.00;84.20;;;;;;4979212;28;20238;-82
2021/01/19 02:43:25;;;;;;;2.75;1.50;;;2.90;84.40;;;;;;4962525;28;20061;-83
2021/01/19 02:45:57;;;;;;;3.92;1.67;;;2.90;84.50;;;;;;4976182;28;20070;-86
2021/01/19 02:48:28;;;;;;;3.60;1.17;;;2.90;84.60;;;;;;4979762;28;20292;-85
2021/01/19 02:50:58;;;;;;;3.75;1.77;;;2.80;84.60;;;;;;4959030;28;20046;-84
2021/01/19 02:53:26;;;;;;;6.18;1.27;;;2.90;84.40;;;;;;4978016;28;20062;-85
2021/01/19 02:55:54;;;;;;;7.20;1.35;;;2.90;84.20;;;;;;4958997;28;20046;-82
2021/01/19 02:58:37;;;;;;;2.90;1.05;;;2.80;84.40;;;;;;4957700;28;20405;-85
2021/01/19 03:01:07;;;;;;;3.85;1.45;;;2.90;84.40;;;;;;4979355;28;20089;-83
2021/01/19 03:03:38;;;;;;;6.68;1.23;;;2.90;84.20;;;;;;4957128;28;20101;-86
2021/01/19 03:06:10;;;;;;;2.80;1.02;;;2.90;83.80;;;;;;4955958;28;20043;-83
2021/01/19 03:08:41;;;;;;;8.80;1.20;;;2.90;84.00;;;;;;4973112;28;20253;-85
2021/01/19 03:11:11;;;;;;;5.75;1.15;;;2.90;83.70;;;;;;4958177;28;20057;-83
2021/01/19 03:13:38;;;;;;;3.38;1.40;;;2.90;83.60;;;;;;4955359;28;20070;-84
2021/01/19 03:16:09;;;;;;;4.80;1.00;;;2.90;83.00;;;;;;4957451;28;20074;-81
2021/01/19 03:18:39;;;;;;;7.45;1.92;;;2.90;83.20;;;;;;4940539;28;20055;-82
2021/01/19 03:21:08;;;;;;;2.08;0.65;;;3.00;82.80;;;;;;4956177;28;20053;-82
2021/01/19 03:23:37;;;;;;;3.55;1.05;;;3.00;82.30;;;;;;4983374;28;20074;-84
2021/01/19 03:26:06;;;;;;;8.20;1.10;;;3.00;82.10;;;;;;4981560;28;20057;-85
2021/01/19 03:28:33;;;;;;;1.92;1.13;;;3.10;82.10;;;;;;4976461;28;20082;-85
2021/01/19 03:31:02;;;;;;;3.30;1.02;;;3.00;82.00;;;;;;4981938;28;20361;-82
2021/01/19 03:33:31;;;;;;;2.42;0.75;;;3.10;81.80;;;;;;4949734;28;20042;-82
2021/01/19 03:35:59;;;;;;;3.60;0.93;;;3.10;81.60;;;;;;4982033;28;20043;-83
2021/01/19 03:38:28;;;;;;;4.25;1.58;;;3.10;81.60;;;;;;4966469;28;20242;-86
2021/01/19 03:40:55;;;;;;;3.15;1.40;;;3.10;81.40;;;;;;4983504;28;20062;-84
2021/01/19 03:43:23;;;;;;;5.30;1.55;;;3.20;81.40;;;;;;4960783;28;20067;-85
2021/01/19 03:45:51;;;;;;;2.80;1.00;;;3.30;80.70;;;;;;4980433;28;20181;-83
2021/01/19 03:48:18;;;;;;;2.30;1.00;;;3.20;80.50;;;;;;4950201;28;20058;-84
2021/01/19 03:50:46;;;;;;;3.95;1.05;;;3.20;80.40;;;;;;4964400;28;20050;-85
2021/01/19 03:53:14;;;;;;;6.43;1.10;;;3.20;80.40;;;;;;4979477;28;20055;-85
2021/01/19 03:55:41;;;;;;;1.52;0.75;;;3.30;79.90;;;;;;4980146;28;20113;-86
2021/01/19 03:58:09;;;;;;;3.28;1.10;;;3.30;79.80;;;;;;4961026;28;20061;-85
2021/01/19 04:00:38;;;;;;;1.25;0.70;;;3.30;79.40;;;;;;4979806;28;20249;-83
2021/01/19 04:03:10;;;;;;;3.75;0.75;;;3.30;79.40;;;;;;4964938;28;20304;-84
2021/01/19 04:05:38;;;;;;;2.13;0.75;;;3.30;79.80;;;;;;4980711;28;20058;-82
2021/01/19 04:08:10;;;;;;;5.10;0.95;;;3.30;80.00;;;;;;4976547;28;20111;-84
2021/01/19 04:10:38;;;;;;;4.43;0.93;;;3.30;79.90;;;;;;4961778;28;20149;-82
2021/01/19 04:13:09;;;;;;;3.70;0.95;;;3.30;80.00;;;;;;4973233;28;20066;-82
2021/01/19 04:15:38;;;;;;;;;;;3.20;80.20;;;;;;4974699;28;20575;-85
2021/01/19 04:18:07;;;;;;;5.07;1.50;;;3.20;79.90;;;;;;4957916;28;20222;-83
2021/01/19 04:20:35;;;;;;;2.70;0.90;;;3.20;80.20;;;;;;4955508;28;20066;-86
2021/01/19 04:23:04;;;;;;;4.47;0.60;;;3.20;80.20;;;;;;4973548;28;20066;-84
2021/01/19 04:25:31;;;;;;;6.55;0.63;;;3.20;80.30;;;;;;4955583;28;20402;-84
2021/01/19 04:28:02;;;;;;;2.10;0.70;;;3.10;80.60;;;;;;4973539;28;20312;-84
2021/01/19 04:30:32;;;;;;;1.42;0.82;;;3.20;81.00;;;;;;4972036;28;20125;-84
2021/01/19 04:32:59;;;;;;;2.75;1.30;;;3.20;80.60;;;;;;4936308;28;20361;-85
2021/01/19 04:35:27;;;;;;;4.47;1.27;;;3.20;80.50;;;;;;4953578;28;20051;-82
2021/01/19 04:37:56;;;;;;;5.80;1.77;;;3.20;80.60;;;;;;4969669;28;20259;-83
2021/01/19 04:40:24;;;;;;;4.13;0.90;;;3.20;81.00;;;;;;4972225;28;20362;-86
2021/01/19 04:42:52;;;;;;;1.00;0.63;;;3.20;80.30;;;;;;4974968;28;20070;-84
2021/01/19 04:45:22;;;;;;;5.03;1.48;;;3.20;80.20;;;;;;4958363;28;20063;-85
2021/01/19 04:47:53;;;;;;;2.05;1.10;;;3.30;79.80;;;;;;4976104;28;20369;-85
2021/01/19 04:50:21;;;;;;;1.10;0.82;;;3.30;79.50;;;;;;4959652;28;20077;-87
2021/01/19 04:52:56;;;;;;;2.97;0.77;;;3.30;79.30;;;;;;4979333;28;20054;-84
2021/01/19 04:55:24;;;;;;;1.05;0.47;;;3.30;79.20;;;;;;4975471;28;20382;-85
2021/01/19 04:57:58;;;;;;;1.27;0.75;;;3.30;79.20;;;;;;4945303;28;20113;-85
2021/01/19 05:00:37;;;;;;;3.17;0.65;;;3.40;78.90;;;;;;4960278;28;20051;-84
2021/01/19 05:03:18;;;;;;;1.30;0.63;;;3.40;79.20;;;;;;4979127;28;20336;-83
2021/01/19 05:06:13;;;;;;;3.95;1.13;;;3.40;78.40;;;;;;4978745;28;20227;-83
2021/01/19 05:08:56;;;;;;;4.80;0.60;;;3.40;78.80;;;;;;4961159;28;20051;-84
2021/01/19 05:11:27;;;;;;;2.97;0.75;;;3.40;78.60;;;;;;4943402;28;20054;-85
2021/01/19 05:14:03;;;;;;;4.90;1.33;;;3.50;78.10;;;;;;4961888;28;20062;-83
2021/01/19 05:16:35;;;;;;;2.55;1.00;;;3.50;78.20;;;;;;4978665;28;20061;-82
2021/01/19 05:19:06;;;;;;;2.17;0.98;;;3.50;78.10;;;;;;4976590;28;20118;-82
2021/01/19 05:21:34;;;;;;;;;;;3.50;78.00;;;;;;4946242;28;20507;-85
2021/01/19 05:24:04;;;;;;;2.53;0.60;;;3.60;77.90;;;;;;4974712;28;19925;-86
2021/01/19 05:26:33;;;;;;;1.30;0.63;;;3.60;77.90;;;;;;4944139;28;20062;-84
2021/01/19 05:29:05;;;;;;;2.90;0.95;;;3.60;77.70;;;;;;4959452;28;20074;-84
2021/01/19 05:31:34;;;;;;;4.28;1.85;;;3.60;77.70;;;;;;4962141;28;20061;-83
2021/01/19 05:34:06;;;;;;;2.92;1.08;;;3.60;77.80;;;;;;4973085;28;20051;-83
2021/01/19 05:36:41;;;;;;;2.80;1.17;;;3.60;77.80;;;;;;4952908;28;20058;-83
2021/01/19 05:39:12;;;;;;;4.55;0.88;;;3.70;77.70;;;;;;4977279;28;20380;-83
2021/01/19 05:41:43;;;;;;;1.30;0.57;;;3.70;77.30;;;;;;4982156;28;20062;-84
2021/01/19 05:44:17;;;;;;;1.60;0.80;;;3.60;77.10;;;;;;4986143;28;20053;-84
2021/01/19 05:46:50;;;;;;;4.07;1.65;;;3.60;77.20;;;;;;4963962;28;20101;-83
2021/01/19 05:49:20;;;;;;;4.18;1.42;;;3.60;77.30;;;;;;4983542;28;20077;-84
2021/01/19 05:51:50;;;;;;;3.30;1.27;;;3.70;77.20;;;;;;4988355;28;20054;-85
2021/01/19 05:54:28;;;;;;;2.33;0.90;;;3.60;76.60;;;;;;4984795;28;20051;-82
2021/01/19 05:57:10;;;;;;;3.67;1.00;;;3.60;77.00;;;;;;4985157;28;20065;-86
2021/01/19 05:59:45;;;;;;;4.38;1.58;;;3.60;76.80;;;;;;4967718;28;20090;-82
2021/01/19 06:02:15;;;;;;;3.13;0.65;;;3.60;76.70;;;;;;4967594;28;20052;-85
2021/01/19 06:04:48;;;;;;;2.63;1.15;;;3.60;77.00;;;;;;4982320;28;20051;-85
2021/01/19 06:07:16;;;;;;;11.45;1.00;;;3.70;77.10;;;;;;4982524;28;21119;-85
2021/01/19 06:09:44;;;;;;;4.13;1.10;;;3.60;77.00;;;;;;4964972;28;20077;-83
2021/01/19 06:12:13;;;;;;;3.38;0.73;;;3.60;76.90;;;;;;4980256;28;20388;-82
2021/01/19 06:14:46;;;;;;;2.63;0.88;;;3.60;76.60;;;;;;4959472;28;20125;-83
2021/01/19 06:17:15;;;;;;;3.60;2.08;;;3.60;77.00;;;;;;4979497;28;20050;-84
2021/01/19 06:19:44;;;;;;;5.45;1.08;;;3.60;76.80;;;;;;4960944;28;20159;-84
2021/01/19 06:22:15;;;;;;;2.00;0.98;;;3.60;77.00;;;;;;4959995;28;20071;-84
2021/01/19 06:24:49;;;;;;;3.20;1.23;;;3.50;76.90;;;;;;4977573;28;20054;-85
2021/01/19 06:27:35;;;;;;;4.30;0.90;;;3.50;77.10;;;;;;4960607;28;20073;-84
2021/01/19 06:30:10;;;;;;;6.80;1.08;;;3.50;77.00;;;;;;4961685;28;20070;-82
2021/01/19 06:32:50;;;;;;;3.42;0.80;;;3.50;76.80;;;;;;4985582;28;20047;-85
2021/01/19 06:35:21;;;;;;;5.03;1.83;;;3.40;77.30;;;;;;4965382;28;20062;-85
2021/01/19 06:37:52;;;;;;;2.15;0.82;;;3.50;77.00;;;;;;4943372;28;20099;-85
2021/01/19 06:40:20;;;;;;;;;;;3.60;76.60;;;;;;4962679;28;20870;-85
2021/01/19 06:42:58;;;;;;;1.10;0.60;;;3.60;76.40;;;;;;4945106;28;19926;-85
2021/01/19 06:45:26;;;;;;;2.85;0.77;;;3.60;76.70;;;;;;4979170;28;20075;-83
2021/01/19 06:47:57;;;;;;;2.10;0.82;;;3.60;76.30;;;;;;4957931;28;20243;-84
2021/01/19 06:50:25;;;;;;;4.95;1.00;;;3.70;76.30;;;;;;4942559;28;20339;-83
2021/01/19 06:53:13;;;;;;;2.95;0.95;;;3.70;76.40;;;;;;4956350;28;20266;-83
2021/01/19 06:55:56;;;;;;;1.38;0.70;;;3.70;76.50;;;;;;4939328;28;20089;-83
2021/01/19 06:58:50;;;;;;;2.78;0.88;;;3.70;76.30;;;;;;4937037;28;20264;-83
2021/01/19 07:01:18;;;;;;;6.45;1.25;;;3.70;75.90;;;;;;4977868;28;20400;-85
2021/01/19 07:04:03;;;;;;;2.30;1.05;;;3.70;75.70;;;;;;4940022;28;20054;-83
2021/01/19 07:06:57;;;;;;;3.58;1.20;;;3.70;75.80;;;;;;4961015;28;20208;-83
2021/01/19 07:10:13;;;;;;;3.25;1.13;;;3.80;75.50;;;;;;4941736;28;20135;-84
2021/01/19 07:12:59;;;;;;;1.40;0.68;;;3.80;75.50;;;;;;4955351;28;20057;-83
2021/01/19 07:16:14;;;;;;;6.13;0.93;;;3.80;75.60;;;;;;4955789;28;20083;-84
2021/01/19 07:19:08;;;;;;;3.15;1.33;;;3.80;76.10;;;;;;4951666;28;20349;-82
2021/01/19 07:22:08;;;;;;;2.58;0.63;;;3.80;75.50;;;;;;4955814;28;20127;-83
2021/01/19 07:24:41;;;;;;;4.68;1.48;;;3.80;75.40;;;;;;4952651;28;20065;-82
2021/01/19 07:27:14;;;;;;;1.42;0.60;;;3.90;75.10;;;;;;4957372;28;20054;-82
2021/01/19 07:29:41;;;;;;;3.10;1.50;;;3.90;74.90;;;;;;4970897;28;20063;-83
2021/01/19 07:32:25;;;;;;;1.98;0.70;;;4.00;74.90;;;;;;4955057;28;20065;-85
2021/01/19 07:34:54;;;;;;;2.97;1.30;;;3.90;75.30;;;;;;4951544;28;20101;-85
2021/01/19 07:37:30;;;;;;;7.57;1.90;;;3.90;75.20;;;;;;4975205;28;20354;-81
2021/01/19 07:39:58;;;;;;;4.43;1.80;;;3.90;75.00;;;;;;4957550;28;20382;-84
2021/01/19 07:42:33;;;;;;;4.10;1.70;;;3.90;74.90;;;;;;4943436;28;20054;-84
2021/01/19 07:45:07;;;;;;;7.85;1.75;;;3.90;75.00;;;;;;4975346;28;20076;-83
2021/01/19 07:47:38;;;;;;;3.58;1.85;;;4.00;74.80;;;;;;4957235;28;20169;-84
2021/01/19 07:50:11;;;;;;;2.50;0.93;;;3.90;75.10;;;;;;4971469;28;20105;-84
2021/01/19 07:52:43;;;;;;;5.50;0.70;;;4.00;74.70;;;;;;4940812;28;20069;-84
2021/01/19 07:55:15;;;;;;;9.13;1.27;;;3.90;75.00;;;;;;4971926;28;20059;-84
2021/01/19 07:57:46;;;;;;;1.30;0.88;;;4.00;74.70;;;;;;4957581;28;20290;-82
2021/01/19 08:00:19;;;;;;;;;;;4.00;75.10;;;;;;4938985;28;20438;-84
2021/01/19 08:02:46;;;;;;;6.20;0.60;;;4.00;75.30;;;;;;4957761;28;20198;-83
2021/01/19 08:05:15;;;;;;;2.08;0.65;;;4.00;75.30;;;;;;4972203;28;20074;-81
2021/01/19 08:07:43;;;;;;;1.77;0.82;;;4.00;75.50;;;;;;4974748;28;20165;-85
2021/01/19 08:10:21;;;;;;;3.05;1.02;;;4.00;75.50;;;;;;4971937;28;20061;-85
2021/01/19 08:12:52;;;;;;;3.38;1.10;;;4.00;75.80;;;;;;4941512;28;20059;-83
2021/01/19 08:15:23;;;;;;;3.88;0.85;;;4.00;75.70;;;;;;4972703;28;20066;-84
2021/01/19 08:17:53;;;;;;;5.13;0.93;;;4.00;76.00;;;;;;4949660;28;20051;-85
2021/01/19 08:20:28;;;;;;;1.08;0.50;;;4.00;76.10;;;;;;4933789;29;20054;-84
2021/01/19 08:22:58;;;;;;;5.78;1.17;;;4.00;75.50;;;;;;4918647;29;20062;-86
2021/01/19 08:25:28;;;;;;;4.60;1.27;;;4.00;75.10;;;;;;4952378;28;20051;-84
2021/01/19 08:27:57;;;;;;;1.95;1.10;;;4.10;75.50;;;;;;4919226;29;20239;-84
2021/01/19 08:30:26;;;;;;;2.08;0.88;;;4.10;75.90;;;;;;4932861;29;20086;-85
2021/01/19 08:32:55;;;;;;;2.17;0.68;;;4.00;76.20;;;;;;4949478;28;20099;-86
2021/01/19 08:35:23;;;;;;;5.75;1.33;;;4.00;77.20;;;;;;4917078;29;20071;-82
2021/01/19 08:37:54;;;;;;;3.80;0.75;;;4.00;78.30;;;;;;4935309;29;20339;-81
2021/01/19 08:40:30;;;;;;;2.42;0.82;;;3.90;78.90;;;;;;4935897;29;20063;-82
2021/01/19 08:43:01;;;;;;;4.00;0.88;;;3.80;80.10;;;;;;4942714;29;20039;-82
2021/01/19 08:45:33;;;;;;;2.95;0.95;;;3.70;80.90;;;;;;4929717;29;20055;-85
2021/01/19 08:48:03;;;;;;;5.60;1.30;;;3.70;80.60;;;;;;4934951;28;20376;-83
2021/01/19 08:50:36;;;;;;;6.45;0.77;;;3.70;81.60;;;;;;4944885;29;20066;-82
2021/01/19 08:53:09;;;;;;;7.65;0.90;;;3.60;81.80;;;;;;4937188;29;20435;-81
2021/01/19 08:55:36;;;;;;;1.85;0.80;;;3.50;82.40;;;;;;4955477;28;20060;-83
2021/01/19 08:58:05;;;;;;;2.33;1.10;;;3.50;82.30;;;;;;4939185;29;20059;-84
2021/01/19 09:00:37;;;;;;;2.65;0.40;;;3.60;82.00;;;;;;4948566;28;20468;-82
2021/01/19 09:03:11;;;;;;;2.75;0.80;;;3.60;81.70;;;;;;4934390;29;20043;-86
2021/01/19 09:05:38;;;;;;;1.88;0.90;;;3.60;82.10;;;;;;4942779;28;20055;-82
2021/01/19 09:08:15;;;;;;;2.35;0.95;;;3.60;81.70;;;;;;4947949;28;20118;-82
2021/01/19 09:10:43;;;;;;;6.35;1.05;;;3.60;81.10;;;;;;4932115;29;20417;-82
2021/01/19 09:13:12;;;;;;;2.97;1.52;;;3.60;81.50;;;;;;4945594;28;20286;-82
2021/01/19 09:15:42;;;;;;;3.65;1.10;;;3.60;81.20;;;;;;4933932;28;20063;-85
2021/01/19 09:18:12;;;;;;;2.17;1.00;;;3.70;80.90;;;;;;4967161;28;20050;-81
2021/01/19 09:20:40;;;;;;;6.50;0.82;;;3.70;80.50;;;;;;4952240;28;20362;-82
2021/01/19 09:23:09;;;;;;;1.85;1.00;;;3.70;80.80;;;;;;4967393;28;20134;-83
2021/01/19 09:25:37;;;;;;;7.15;0.93;;;3.70;80.60;;;;;;4971392;28;20114;-84
2021/01/19 09:28:07;;;;;;;3.63;0.95;;;3.70;81.00;;;;;;4936936;28;20062;-84
2021/01/19 09:30:39;;;;;;;1.08;0.90;;;3.70;80.80;;;;;;4970483;28;20055;-83
2021/01/19 09:33:10;;;;;;;1.65;0.82;;;3.70;81.30;;;;;;4974499;28;20473;-81
2021/01/19 09:35:39;;;;;;;2.58;0.73;;;3.70;81.70;;;;;;4971466;28;20046;-82
2021/01/19 09:38:13;;;;;;;8.25;1.38;;;3.70;82.00;;;;;;4958759;28;20058;-83
2021/01/19 09:40:45;;;;;;;2.55;1.67;;;3.70;82.60;;;;;;4951390;28;20054;-84
2021/01/19 09:43:14;;;;;;;7.70;1.08;;;3.60;83.30;;;;;;4953747;28;20051;-83
2021/01/19 09:45:42;;;;;;;2.80;0.77;;;3.60;84.40;;;;;;4970679;28;20053;-84
2021/01/19 09:48:15;;;;;;;7.78;1.55;;;3.40;84.30;;;;;;4970911;28;20359;-83
2021/01/19 09:50:43;;;;;;;2.20;0.77;;;3.40;85.00;;;;;;4957016;28;20051;-84
2021/01/19 09:53:10;;;;;;;3.90;1.08;;;3.40;84.80;;;;;;4966552;28;20062;-82
2021/01/19 09:55:37;;;;;;;6.95;0.88;;;3.30;85.20;;;;;;4970495;28;20059;-81
2021/01/19 09:58:08;;;;;;;2.42;1.10;;;3.30;85.90;;;;;;4953605;28;20074;-84
2021/01/19 10:00:37;;;;;;;3.15;0.88;;;3.30;85.90;;;;;;4958967;28;20589;-84
2021/01/19 10:03:12;;;;;;;4.68;0.90;;;3.30;85.90;;;;;;4957032;28;20342;-87
2021/01/19 10:05:40;;;;;;;2.50;0.93;;;3.30;85.90;;;;;;4973776;28;20062;-84
2021/01/19 10:08:11;;;;;;;9.40;1.98;;;3.20;85.70;;;;;;4973454;28;20111;-84
2021/01/19 10:10:39;;;;;;;2.15;1.70;;;3.30;86.40;;;;;;4934471;28;20059;-82
2021/01/19 10:13:09;;;;;;;2.33;1.10;;;3.20;86.50;;;;;;4972567;28;20075;-83
2021/01/19 10:15:40;;;;;;;3.05;0.80;;;3.20;86.50;;;;;;4969339;28;20081;-81
2021/01/19 10:18:07;;;;;;;1.83;0.73;;;3.20;86.50;;;;;;4968007;28;20051;-82
2021/01/19 10:20:37;;;;;;;6.20;2.22;;;3.10;87.10;;;;;;4920138;28;20066;-83
2021/01/19 10:23:08;;;;;;;2.50;1.45;;;3.10;88.00;;;;;;4953841;28;20054;-82
2021/01/19 10:25:37;;;;;;;6.15;1.25;;;3.10;88.30;;;;;;4971439;28;20343;-83
2021/01/19 10:28:06;;;;;;;3.83;1.30;;;3.00;88.20;;;;;;4978837;28;20093;-82
2021/01/19 10:30:40;;;;;;;9.57;2.33;;;3.00;88.10;;;;;;4982428;28;20549;-83
2021/01/19 10:33:20;;;;;;;4.35;1.00;;;3.00;88.10;;;;;;4981621;28;20350;-84
2021/01/19 10:35:50;;;;;;;2.45;0.47;;;3.10;87.80;;;;;;4978631;28;20101;-83
2021/01/19 10:38:27;;;;;;;3.38;0.90;;;3.00;88.60;;;;;;4973463;28;20369;-85
2021/01/19 10:40:55;;;;;;;2.00;0.93;;;2.90;89.00;;;;;;4950373;28;20233;-83
2021/01/19 10:43:27;;;;;;;4.55;1.48;;;2.80;89.30;;;;;;4975619;28;20070;-82
2021/01/19 10:45:57;;;;;;;2.53;1.00;;;2.70;89.80;;;;;;4955901;28;20066;-82
2021/01/19 10:48:25;;;;;;;3.45;1.13;;;2.70;89.60;;;;;;4972993;28;20073;-82
2021/01/19 10:50:53;;;;;;;4.38;1.63;;;2.60;90.80;;;;;;4943489;28;20052;-83
2021/01/19 10:53:28;;;;;;;3.28;1.40;;;2.70;89.30;;;;;;4939737;28;20462;-86
2021/01/19 10:55:55;;;;;;;31.02;2.65;;;2.70;89.70;;;;;;4956439;28;20261;-82
2021/01/19 10:58:23;;;;;;;1.85;0.85;;;2.70;90.10;;;;;;4952605;28;20066;-82
2021/01/19 11:00:52;;;;;;;6.47;1.23;;;2.70;89.20;;;;;;4973655;28;20146;-82
2021/01/19 11:03:21;;;;;;;3.17;1.40;;;2.70;89.90;;;;;;4975924;28;20050;-84
2021/01/19 11:05:53;;;;;;;4.22;0.70;;;2.70;90.10;;;;;;4953016;28;20086;-84
2021/01/19 11:08:21;;;;;;;3.35;1.35;;;2.70;89.90;;;;;;4955484;28;20073;-84
2021/01/19 11:10:52;;;;;;;4.10;1.08;;;2.70;90.00;;;;;;4958278;28;20042;-84
2021/01/19 11:13:19;;;;;;;6.93;1.10;;;2.60;90.70;;;;;;4972385;28;20055;-81
2021/01/19 11:15:46;;;;;;;2.75;1.00;;;2.60;90.70;;;;;;4960032;28;20122;-82
2021/01/19 11:18:15;;;;;;;4.82;0.98;;;2.60;90.80;;;;;;4977255;28;20062;-85
2021/01/19 11:20:43;;;;;;;3.17;1.08;;;2.60;90.60;;;;;;4975513;28;20113;-81
2021/01/19 11:23:13;;;;;;;4.10;1.10;;;2.60;90.90;;;;;;4955877;28;20061;-82
2021/01/19 11:25:44;;;;;;;3.92;0.80;;;2.60;90.90;;;;;;4958089;28;20113;-84
2021/01/19 11:28:14;;;;;;;7.30;1.20;;;2.60;91.10;;;;;;4958221;28;20377;-83
2021/01/19 11:30:41;;;;;;;3.25;1.55;;;2.70;91.00;;;;;;4973609;28;20050;-83
2021/01/19 11:33:08;;;;;;;3.15;1.20;;;2.60;91.30;;;;;;4972026;28;20238;-81
2021/01/19 11:35:36;;;;;;;2.60;0.98;;;2.60;91.30;;;;;;4972541;28;22314;-82
2021/01/19 11:38:05;;;;;;;1.65;0.73;;;2.50;91.80;;;;;;4955818;28;20055;-84
2021/01/19 11:40:33;;;;;;;2.08;0.98;;;2.50;91.70;;;;;;4974975;28;20425;-83
2021/01/19 11:43:02;;;;;;;2.08;1.10;;;2.50;91.40;;;;;;4958041;28;20058;-84
2021/01/19 11:45:30;;;;;;;2.03;0.70;;;2.50;91.40;;;;;;4973103;28;20071;-83
2021/01/19 11:47:58;;;;;;;2.38;0.95;;;2.50;91.40;;;;;;4958754;28;20114;-84
2021/01/19 11:50:26;;;;;;;11.82;1.67;;;2.50;92.00;;;;;;4956139;28;20178;-84
2021/01/19 11:52:53;;;;;;;1.30;0.80;;;2.50;91.90;;;;;;4953292;28;20043;-84
2021/01/19 11:55:23;;;;;;;4.68;1.38;;;2.40;91.90;;;;;;4939743;28;20121;-83
2021/01/19 11:57:50;;;;;;;2.20;1.57;;;2.40;92.40;;;;;;4956667;28;20142;-81
2021/01/19 12:00:18;;;;;;;2.95;1.15;;;2.40;92.40;;;;;;4956426;28;20577;-83
2021/01/19 12:02:45;;;;;;;2.92;1.33;;;2.40;92.50;;;;;;4952148;28;20046;-82
2021/01/19 12:05:14;;;;;;;5.10;2.63;;;2.30;92.70;;;;;;4953748;28;20358;-85
2021/01/19 12:07:41;;;;;;;2.72;1.25;;;2.30;93.10;;;;;;4955533;28;20047;-82
2021/01/19 12:10:09;;;;;;;2.83;1.25;;;2.40;92.60;;;;;;4972412;28;20115;-83
2021/01/19 12:12:58;;;;;;;3.10;2.72;;;2.50;92.80;;;;;;2215735;28;10022883;-82
2021/01/19 12:15:28;;;;;;;4.28;1.17;;;2.50;92.50;;;;;;3588333;28;10001240;-82
2021/01/19 12:17:59;;;;;;;6.03;1.60;;;2.50;92.30;;;;;;4939207;28;20047;-83
2021/01/19 12:20:31;;;;;;;3.22;1.52;;;2.50;92.40;;;;;;4960924;28;20046;-82
2021/01/19 12:22:59;;;;;;;6.72;1.05;;;2.60;92.40;;;;;;4959019;28;20047;-84
2021/01/19 12:25:26;;;;;;;7.45;1.50;;;2.60;92.50;;;;;;4956052;28;20106;-84
2021/01/19 12:27:54;;;;;;;6.93;1.50;;;2.60;92.40;;;;;;4979614;28;20058;-84
2021/01/19 12:30:24;;;;;;;5.40;1.05;;;2.60;92.40;;;;;;4976680;28;20068;-82
2021/01/19 12:32:53;;;;;;;2.05;1.10;;;2.70;92.20;;;;;;4975348;28;20070;-84
2021/01/19 12:35:23;;;;;;;6.13;1.25;;;2.60;92.70;;;;;;4955106;28;20341;-82
2021/01/19 12:37:55;;;;;;;2.28;1.17;;;2.60;92.90;;;;;;4960085;28;20062;-84
2021/01/19 12:40:24;;;;;;;4.80;1.20;;;2.60;92.80;;;;;;4969708;28;20066;-83
2021/01/19 12:42:52;;;;;;;4.05;1.10;;;2.60;92.50;;;;;;4940525;28;20054;-83
2021/01/19 12:45:22;;;;;;;4.97;1.67;;;2.50;92.80;;;;;;4953025;28;20050;-82
2021/01/19 12:47:51;;;;;;;10.65;1.92;;;2.50;92.70;;;;;;4952218;28;20130;-85
2021/01/19 12:50:24;;;;;;;5.25;2.65;;;2.50;92.70;;;;;;4950997;28;20112;-83
2021/01/19 12:52:54;;;;;;;4.55;1.60;;;2.50;92.80;;;;;;4974980;28;20059;-83
2021/01/19 12:55:25;;;;;;;2.90;1.02;;;2.50;92.80;;;;;;4976907;28;20047;-83
2021/01/19 12:57:52;;;;;;;9.75;2.47;;;2.40;92.90;;;;;;4966507;28;20252;-83
2021/01/19 13:00:23;;;;;;;2.47;0.95;;;2.40;93.30;;;;;;4970132;28;20182;-86
2021/01/19 13:03:05;;;;;;;4.85;1.55;;;2.40;93.40;;;;;;4950831;28;20466;-82
2021/01/19 13:05:35;;;;;;;3.92;1.35;;;2.40;93.00;;;;;;4964658;28;20345;-83
2021/01/19 13:08:02;;;;;;;1.90;1.35;;;2.40;93.40;;;;;;4982439;28;20113;-83
2021/01/19 13:10:30;;;;;;;3.97;1.00;;;2.50;93.40;;;;;;4979486;28;20066;-83
2021/01/19 13:12:58;;;;;;;7.53;1.33;;;2.40;93.30;;;;;;4977562;28;20043;-83
2021/01/19 13:15:28;;;;;;;4.15;1.20;;;2.50;93.00;;;;;;4961088;28;20415;-84
2021/01/19 13:17:55;;;;;;;3.45;1.52;;;2.50;93.00;;;;;;4973124;28;20054;-81
2021/01/19 13:20:22;;;;;;;2.58;0.95;;;2.60;93.50;;;;;;4947223;28;20059;-83